createdAt,value
2023-03-19T00:00:34.663Z,46.91
2023-03-19T00:03:01.431Z,47.25
2023-03-19T00:05:28.076Z,47.06
2023-03-19T00:07:54.711Z,46.88
2023-03-19T00:10:21.480Z,47.09
2023-03-19T00:12:48.097Z,47.10
2023-03-19T00:15:15.568Z,47.21
2023-03-19T00:17:43.167Z,47.50
2023-03-19T00:20:11.949Z,47.25
2023-03-19T00:22:39.712Z,47.95
2023-03-19T00:25:08.144Z,48.02
2023-03-19T00:27:34.708Z,48.28
2023-03-19T00:30:02.640Z,48.00
2023-03-19T00:32:30.174Z,48.07
2023-03-19T00:34:56.854Z,48.28
2023-03-19T00:37:23.492Z,47.95
2023-03-19T00:39:52.096Z,47.72
2023-03-19T00:42:18.612Z,47.72
2023-03-19T00:44:45.173Z,48.38
2023-03-19T00:47:12.470Z,48.44
2023-03-19T00:49:39.006Z,48.20
2023-03-19T00:52:05.568Z,48.29
2023-03-19T00:54:32.505Z,47.85
2023-03-19T00:56:59.114Z,48.42
2023-03-19T00:59:26.333Z,48.15
2023-03-19T01:01:52.891Z,48.72
2023-03-19T01:04:19.586Z,48.17
2023-03-19T01:06:46.283Z,47.99
2023-03-19T01:09:12.886Z,48.84
2023-03-19T01:11:39.423Z,48.78
2023-03-19T01:14:06.461Z,48.51
2023-03-19T01:16:34.765Z,48.43
2023-03-19T01:19:02.339Z,48.53
2023-03-19T01:21:31.214Z,48.67
2023-03-19T01:23:58.726Z,48.26
2023-03-19T01:26:26.141Z,48.40
2023-03-19T01:28:53.061Z,48.63
2023-03-19T01:31:19.917Z,48.83
2023-03-19T01:33:46.631Z,48.33
2023-03-19T01:36:13.793Z,48.17
2023-03-19T01:38:40.628Z,48.20
2023-03-19T01:41:10.135Z,48.35
2023-03-19T01:43:36.754Z,47.87
2023-03-19T01:46:34.732Z,47.43
2023-03-19T01:49:03.723Z,47.69
2023-03-19T01:51:34.795Z,47.85
2023-03-19T01:54:05.579Z,46.82
2023-03-19T01:56:34.877Z,47.15
2023-03-19T01:59:26.127Z,47.63
2023-03-19T02:02:01.006Z,47.50
2023-03-19T02:04:27.835Z,47.60
2023-03-19T02:06:59.444Z,47.60
2023-03-19T02:09:27.284Z,47.45
2023-03-19T02:11:54.874Z,47.71
2023-03-19T02:14:21.794Z,47.96
2023-03-19T02:16:48.757Z,48.11
2023-03-19T02:19:28.149Z,47.16
2023-03-19T02:21:56.173Z,47.17
2023-03-19T02:24:51.106Z,47.48
2023-03-19T02:27:17.944Z,47.42
2023-03-19T02:29:44.496Z,47.38
2023-03-19T02:32:11.341Z,47.31
2023-03-19T02:34:41.494Z,47.57
2023-03-19T02:37:11.731Z,47.57
2023-03-19T02:39:50.075Z,47.74
2023-03-19T02:42:18.571Z,47.48
2023-03-19T02:44:46.235Z,47.21
2023-03-19T02:47:12.825Z,47.72
2023-03-19T02:49:39.340Z,47.69
2023-03-19T02:52:05.951Z,47.41
2023-03-19T02:54:32.572Z,47.66
2023-03-19T02:56:59.269Z,47.50
2023-03-19T02:59:26.210Z,47.61
2023-03-19T03:01:52.961Z,47.62
2023-03-19T03:04:19.547Z,47.95
2023-03-19T03:06:46.205Z,47.63
2023-03-19T03:09:13.485Z,47.61
2023-03-19T03:11:41.775Z,47.91
2023-03-19T03:14:08.726Z,47.07
2023-03-19T03:16:35.412Z,47.17
2023-03-19T03:19:02.565Z,47.30
2023-03-19T03:21:29.625Z,47.65
2023-03-19T03:23:56.429Z,47.25
2023-03-19T03:26:23.189Z,47.50
2023-03-19T03:28:49.752Z,47.18
2023-03-19T03:31:16.959Z,47.54
2023-03-19T03:33:43.719Z,47.13
2023-03-19T03:36:10.314Z,47.50
2023-03-19T03:38:36.830Z,47.36
2023-03-19T03:41:03.368Z,46.94
2023-03-19T03:43:32.935Z,47.63
2023-03-19T03:45:59.575Z,47.49
2023-03-19T03:48:26.122Z,47.62
2023-03-19T03:50:52.776Z,47.54
2023-03-19T03:53:19.347Z,47.43
2023-03-19T03:55:45.905Z,47.02
2023-03-19T03:58:15.412Z,47.12
2023-03-19T04:00:42.099Z,46.94
2023-03-19T04:03:08.915Z,47.17
2023-03-19T04:05:36.652Z,46.88
2023-03-19T04:08:03.866Z,46.67
2023-03-19T04:10:31.340Z,46.70
2023-03-19T04:12:58.096Z,47.13
2023-03-19T04:15:28.934Z,46.58
2023-03-19T04:17:55.657Z,46.74
2023-03-19T04:20:23.672Z,46.39
2023-03-19T04:22:50.333Z,46.95
2023-03-19T04:25:17.143Z,46.65
2023-03-19T04:27:43.830Z,46.82
2023-03-19T04:30:11.589Z,47.44
2023-03-19T04:32:38.452Z,46.95
2023-03-19T04:35:05.775Z,47.09
2023-03-19T04:37:35.029Z,47.19
2023-03-19T04:40:01.745Z,47.41
2023-03-19T04:42:31.217Z,47.83
2023-03-19T04:44:57.787Z,47.22
2023-03-19T04:47:24.344Z,47.96
2023-03-19T04:49:51.477Z,48.36
2023-03-19T04:52:18.027Z,48.09
2023-03-19T04:54:44.562Z,48.54
2023-03-19T04:57:11.465Z,49.12
2023-03-19T04:59:38.090Z,48.63
2023-03-19T05:02:05.082Z,49.21
2023-03-19T05:04:31.679Z,49.12
2023-03-19T05:06:58.362Z,48.83
2023-03-19T05:09:24.958Z,48.97
2023-03-19T05:11:51.696Z,48.69
2023-03-19T05:14:18.309Z,49.16
2023-03-19T05:16:44.885Z,49.70
2023-03-19T05:19:11.405Z,48.98
2023-03-19T05:21:41.037Z,49.45
2023-03-19T05:24:07.870Z,49.56
2023-03-19T05:26:34.502Z,49.84
2023-03-19T05:29:01.348Z,49.46
2023-03-19T05:31:30.811Z,49.25
2023-03-19T05:33:57.398Z,49.47
2023-03-19T05:36:24.220Z,49.32
2023-03-19T05:38:50.832Z,48.73
2023-03-19T05:41:17.498Z,48.79
2023-03-19T05:43:44.092Z,49.00
2023-03-19T05:46:13.336Z,48.54
2023-03-19T05:48:39.975Z,49.03
2023-03-19T05:51:12.768Z,48.80
2023-03-19T05:53:39.490Z,48.58
2023-03-19T05:56:06.703Z,48.10
2023-03-19T05:58:33.241Z,47.57
2023-03-19T06:00:59.829Z,47.40
2023-03-19T06:03:27.262Z,46.76
2023-03-19T06:05:53.980Z,46.55
2023-03-19T06:08:21.568Z,45.58
2023-03-19T06:10:48.079Z,44.67
2023-03-19T06:13:14.749Z,44.67
2023-03-19T06:15:42.088Z,44.26
2023-03-19T06:18:08.702Z,43.79
2023-03-19T06:20:35.573Z,43.17
2023-03-19T06:23:02.448Z,43.33
2023-03-19T06:25:28.994Z,42.73
2023-03-19T06:27:55.616Z,41.81
2023-03-19T06:30:22.282Z,42.22
2023-03-19T06:32:48.874Z,41.86
2023-03-19T06:35:15.874Z,42.20
2023-03-19T06:37:42.619Z,41.40
2023-03-19T06:40:10.130Z,41.83
2023-03-19T06:42:36.775Z,42.19
2023-03-19T06:45:03.960Z,41.42
2023-03-19T06:47:30.556Z,41.34
2023-03-19T06:50:00.971Z,40.70
2023-03-19T06:52:27.500Z,40.12
2023-03-19T06:54:54.012Z,40.28
2023-03-19T06:57:20.838Z,40.11
2023-03-19T06:59:47.396Z,39.57
2023-03-19T07:02:14.433Z,39.80
2023-03-19T07:04:41.070Z,39.66
2023-03-19T07:07:07.648Z,39.29
2023-03-19T07:09:37.265Z,39.25
2023-03-19T07:12:04.673Z,39.13
2023-03-19T07:14:31.411Z,38.96
2023-03-19T07:16:58.074Z,39.08
2023-03-19T07:19:26.056Z,38.78
2023-03-19T07:21:52.570Z,38.88
2023-03-19T07:24:19.121Z,38.38
2023-03-19T07:26:46.525Z,38.65
2023-03-19T07:29:13.570Z,38.41
2023-03-19T07:31:40.969Z,37.43
2023-03-19T07:34:07.589Z,37.74
2023-03-19T07:36:36.870Z,37.54
2023-03-19T07:39:03.808Z,36.99
2023-03-19T07:41:30.425Z,38.58
2023-03-19T07:43:56.982Z,40.25
2023-03-19T07:46:24.083Z,37.74
2023-03-19T07:48:50.603Z,38.26
2023-03-19T07:51:17.159Z,38.41
2023-03-19T07:53:43.703Z,38.27
2023-03-19T07:56:10.467Z,36.70
2023-03-19T07:58:37.019Z,36.86
2023-03-19T08:01:03.661Z,35.86
2023-03-19T08:03:30.386Z,35.99
2023-03-19T08:05:59.731Z,35.52
2023-03-19T08:08:26.432Z,36.04
2023-03-19T08:10:56.744Z,35.67
2023-03-19T08:13:23.256Z,35.64
2023-03-19T08:15:51.289Z,36.56
2023-03-19T08:18:18.119Z,36.07
2023-03-19T08:20:45.946Z,36.05
2023-03-19T08:23:13.607Z,35.45
2023-03-19T08:25:40.453Z,34.73
2023-03-19T08:28:07.655Z,34.71
2023-03-19T08:30:34.482Z,34.13
2023-03-19T08:33:01.713Z,34.87
2023-03-19T08:35:28.459Z,34.53
2023-03-19T08:37:56.112Z,35.25
2023-03-19T08:40:23.474Z,34.69
2023-03-19T08:42:53.612Z,34.57
2023-03-19T08:45:23.698Z,33.74
2023-03-19T08:47:50.731Z,33.31
2023-03-19T08:50:17.789Z,33.59
2023-03-19T08:52:47.098Z,33.62
2023-03-19T08:55:13.801Z,33.54
2023-03-19T08:57:40.496Z,33.54
2023-03-19T09:00:07.950Z,33.76
2023-03-19T09:02:34.607Z,33.49
2023-03-19T09:05:01.192Z,34.24
2023-03-19T09:07:33.539Z,34.09
2023-03-19T09:10:00.101Z,33.53
2023-03-19T09:12:29.583Z,34.39
2023-03-19T09:14:56.274Z,34.65
2023-03-19T09:17:22.781Z,34.48
2023-03-19T09:19:49.296Z,33.97
2023-03-19T09:22:15.840Z,34.09
2023-03-19T09:24:42.414Z,33.79
2023-03-19T09:27:09.003Z,33.92
2023-03-19T09:29:35.645Z,33.69
2023-03-19T09:32:02.360Z,34.03
2023-03-19T09:34:28.911Z,33.30
2023-03-19T09:36:55.544Z,33.34
2023-03-19T09:39:22.210Z,33.28
2023-03-19T09:42:11.287Z,33.10
2023-03-19T09:44:39.890Z,33.37
2023-03-19T09:47:33.770Z,32.67
2023-03-19T09:50:06.889Z,32.71
2023-03-19T09:53:10.682Z,33.38
2023-03-19T09:55:43.293Z,33.64
2023-03-19T09:58:17.260Z,33.99
2023-03-19T10:00:49.420Z,34.63
2023-03-19T10:03:18.609Z,33.85
2023-03-19T10:06:10.498Z,33.64
2023-03-19T10:08:55.830Z,33.45
2023-03-19T10:11:29.633Z,33.70
2023-03-19T10:14:21.212Z,33.71
2023-03-19T10:16:54.150Z,33.51
2023-03-19T10:19:33.577Z,32.85
2023-03-19T10:22:07.693Z,32.84
2023-03-19T10:24:42.665Z,33.96
2023-03-19T10:27:15.590Z,33.42
2023-03-19T10:29:42.202Z,33.04
2023-03-19T10:32:22.275Z,32.59
2023-03-19T10:34:51.051Z,32.95
2023-03-19T10:37:23.852Z,32.45
2023-03-19T10:39:52.541Z,32.72
2023-03-19T10:42:44.101Z,34.18
2023-03-19T10:45:35.180Z,33.06
2023-03-19T10:48:04.198Z,32.77
2023-03-19T10:50:43.331Z,32.22
2023-03-19T10:53:12.881Z,32.00
2023-03-19T10:55:47.436Z,32.42
2023-03-19T10:58:19.708Z,32.07
2023-03-19T11:00:48.573Z,32.11
2023-03-19T11:03:51.799Z,31.64
2023-03-19T11:06:27.781Z,31.26
2023-03-19T11:09:02.430Z,31.23
2023-03-19T11:11:34.335Z,31.38
2023-03-19T11:14:41.150Z,31.69
2023-03-19T11:17:26.107Z,31.35
2023-03-19T11:19:59.743Z,31.30
2023-03-19T11:22:33.800Z,31.50
2023-03-19T11:25:14.768Z,31.20
2023-03-19T11:27:42.165Z,30.96
2023-03-19T11:30:19.638Z,31.99
2023-03-19T11:33:08.041Z,31.82
2023-03-19T11:35:42.263Z,31.27
2023-03-19T11:38:28.867Z,31.72
2023-03-19T11:41:16.601Z,31.76
2023-03-19T11:44:04.798Z,30.83
2023-03-19T11:46:37.718Z,31.40
2023-03-19T11:49:06.984Z,31.78
2023-03-19T11:51:39.272Z,31.29
2023-03-19T11:54:19.479Z,30.75
2023-03-19T11:57:11.472Z,30.77
2023-03-19T11:59:59.987Z,30.57
2023-03-19T12:02:39.445Z,31.13
2023-03-19T12:05:12.550Z,30.56
2023-03-19T12:07:51.314Z,30.95
2023-03-19T12:10:38.850Z,30.37
2023-03-19T12:13:16.151Z,30.46
2023-03-19T12:16:14.939Z,30.02
2023-03-19T12:19:11.765Z,30.19
2023-03-19T12:22:09.562Z,29.87
2023-03-19T12:25:09.977Z,30.53
2023-03-19T12:27:47.903Z,29.70
2023-03-19T12:30:21.658Z,29.96
2023-03-19T12:33:07.383Z,29.86
2023-03-19T12:35:36.307Z,30.05
2023-03-19T12:38:27.926Z,29.81
2023-03-19T12:41:11.187Z,29.80
2023-03-19T12:43:56.333Z,29.91
2023-03-19T12:46:33.322Z,30.29
2023-03-19T12:49:11.133Z,29.74
2023-03-19T12:51:42.549Z,29.71
2023-03-19T12:54:23.885Z,30.12
2023-03-19T12:57:29.240Z,30.00
2023-03-19T13:00:04.975Z,29.53
2023-03-19T13:02:54.357Z,29.45
2023-03-19T13:05:27.606Z,29.35
2023-03-19T13:07:59.981Z,29.86
2023-03-19T13:10:27.622Z,29.96
2023-03-19T13:12:54.620Z,29.59
2023-03-19T13:15:31.187Z,29.65
2023-03-19T13:18:12.920Z,30.55
2023-03-19T13:21:14.508Z,32.19
2023-03-19T13:23:45.578Z,32.22
2023-03-19T13:26:14.125Z,31.90
2023-03-19T13:29:09.404Z,31.70
2023-03-19T13:31:38.017Z,32.52
2023-03-19T13:34:18.288Z,32.31
2023-03-19T13:37:11.082Z,32.52
2023-03-19T13:39:38.473Z,31.96
2023-03-19T13:42:13.810Z,32.14
2023-03-19T13:44:52.243Z,32.46
2023-03-19T13:47:37.201Z,32.57
2023-03-19T13:50:16.119Z,32.47
2023-03-19T13:52:45.665Z,32.31
2023-03-19T13:55:24.962Z,32.87
2023-03-19T13:58:44.476Z,32.66
2023-03-19T14:01:26.257Z,33.12
2023-03-19T14:04:28.026Z,33.01
2023-03-19T14:07:33.243Z,32.57
2023-03-19T14:10:00.107Z,32.02
2023-03-19T14:12:36.390Z,32.74
2023-03-19T14:15:18.041Z,32.41
2023-03-19T14:17:56.570Z,32.20
2023-03-19T14:20:35.427Z,33.27
2023-03-19T14:23:08.991Z,33.49
2023-03-19T14:25:57.000Z,32.83
2023-03-19T14:28:49.636Z,33.35
2023-03-19T14:31:31.879Z,33.95
2023-03-19T14:34:03.390Z,33.73
2023-03-19T14:36:33.684Z,32.73
2023-03-19T14:39:03.524Z,33.22
2023-03-19T14:41:40.895Z,33.08
2023-03-19T14:44:58.139Z,32.64
2023-03-19T14:47:37.299Z,32.96
2023-03-19T14:50:27.342Z,33.38
2023-03-19T14:53:19.046Z,32.93
2023-03-19T14:55:51.138Z,33.17
2023-03-19T14:58:19.905Z,32.36
2023-03-19T15:00:49.895Z,32.60
2023-03-19T15:03:37.996Z,33.18
2023-03-19T15:06:07.897Z,33.40
2023-03-19T15:08:37.301Z,33.30
2023-03-19T15:11:18.940Z,33.00
2023-03-19T15:14:22.801Z,32.98
2023-03-19T15:17:08.088Z,33.76
2023-03-19T15:19:35.844Z,33.57
2023-03-19T15:22:33.825Z,33.61
2023-03-19T15:25:12.653Z,33.53
2023-03-19T15:27:40.866Z,33.63
2023-03-19T15:30:28.822Z,33.97
2023-03-19T15:33:10.377Z,34.34
2023-03-19T15:35:41.607Z,34.35
2023-03-19T15:38:11.288Z,34.48
2023-03-19T15:40:38.885Z,34.91
2023-03-19T15:43:06.130Z,34.75
2023-03-19T15:45:34.112Z,34.57
2023-03-19T15:48:18.633Z,34.48
2023-03-19T15:50:47.912Z,34.94
2023-03-19T15:53:24.522Z,34.95
2023-03-19T15:55:53.123Z,34.83
2023-03-19T15:58:26.877Z,34.55
2023-03-19T16:00:54.980Z,35.34
2023-03-19T16:03:28.867Z,35.01
2023-03-19T16:06:12.628Z,35.55
2023-03-19T16:08:50.188Z,35.93
2023-03-19T16:11:31.176Z,35.82
2023-03-19T16:14:19.174Z,35.87
2023-03-19T16:16:47.285Z,35.99
2023-03-19T16:19:30.099Z,36.21
2023-03-19T16:21:57.464Z,36.27
2023-03-19T16:24:37.687Z,36.43
2023-03-19T16:27:09.805Z,36.15
2023-03-19T16:29:47.046Z,36.67
2023-03-19T16:32:25.481Z,36.23
2023-03-19T16:34:57.455Z,36.20
2023-03-19T16:37:24.225Z,36.24
2023-03-19T16:39:56.571Z,36.12
2023-03-19T16:42:28.212Z,36.54
2023-03-19T16:44:55.332Z,36.45
2023-03-19T16:47:22.956Z,36.46
2023-03-19T16:49:49.544Z,36.51
2023-03-19T16:52:22.753Z,36.55
2023-03-19T16:54:50.357Z,36.53
2023-03-19T16:57:20.106Z,36.89
2023-03-19T16:59:47.047Z,36.96
2023-03-19T17:02:16.699Z,36.77
2023-03-19T17:04:44.266Z,37.02
2023-03-19T17:07:11.769Z,37.30
2023-03-19T17:09:39.093Z,37.06
2023-03-19T17:12:13.560Z,36.75
2023-03-19T17:14:40.322Z,37.09
2023-03-19T17:17:17.960Z,36.85
2023-03-19T17:19:46.548Z,36.63
2023-03-19T17:22:16.155Z,37.04
2023-03-19T17:24:43.080Z,36.97
2023-03-19T17:27:10.284Z,37.14
2023-03-19T17:29:36.978Z,37.15
2023-03-19T17:32:06.840Z,37.24
2023-03-19T17:34:33.667Z,36.82
2023-03-19T17:37:02.869Z,36.76
2023-03-19T17:39:30.160Z,37.00
2023-03-19T17:41:57.090Z,37.30
2023-03-19T17:44:26.055Z,37.24
2023-03-19T17:46:54.753Z,37.60
2023-03-19T17:49:29.096Z,37.81
2023-03-19T17:51:56.452Z,38.06
2023-03-19T17:54:23.093Z,37.83
2023-03-19T17:56:49.668Z,37.58
2023-03-19T17:59:16.194Z,37.07
2023-03-19T18:01:43.653Z,37.40
2023-03-19T18:04:16.403Z,37.60
2023-03-19T18:06:47.994Z,37.95
2023-03-19T18:09:23.712Z,38.69
2023-03-19T18:11:50.638Z,38.14
2023-03-19T18:14:17.458Z,37.76
2023-03-19T18:16:46.751Z,37.40
2023-03-19T18:19:21.705Z,36.71
2023-03-19T18:21:48.315Z,37.84
2023-03-19T18:24:15.228Z,37.82
2023-03-19T18:26:41.751Z,37.99
2023-03-19T18:29:09.114Z,37.05
2023-03-19T18:31:36.152Z,36.39
2023-03-19T18:34:08.629Z,37.32
2023-03-19T18:36:35.412Z,37.29
2023-03-19T18:39:02.304Z,36.89
2023-03-19T18:41:29.573Z,36.71
2023-03-19T18:43:58.576Z,37.16
2023-03-19T18:46:32.882Z,37.22
2023-03-19T18:49:02.138Z,37.65
2023-03-19T18:51:31.126Z,36.55
2023-03-19T18:53:57.856Z,36.63
2023-03-19T18:56:28.415Z,37.11
2023-03-19T18:58:57.657Z,36.21
2023-03-19T19:01:25.024Z,37.70
2023-03-19T19:03:52.682Z,36.76
2023-03-19T19:06:45.943Z,36.25
2023-03-19T19:09:13.340Z,36.43
2023-03-19T19:11:41.819Z,36.84
2023-03-19T19:14:16.231Z,36.51
2023-03-19T19:16:42.895Z,36.90
2023-03-19T19:19:29.798Z,37.39
2023-03-19T19:21:56.536Z,36.71
2023-03-19T19:24:25.799Z,36.88
2023-03-19T19:26:54.189Z,36.82
2023-03-19T19:29:30.607Z,36.74
2023-03-19T19:31:57.231Z,36.69
2023-03-19T19:34:26.531Z,36.88
2023-03-19T19:36:55.518Z,37.09
2023-03-19T19:39:22.145Z,37.21
2023-03-19T19:41:48.702Z,37.58
2023-03-19T19:44:19.773Z,37.95
2023-03-19T19:46:46.412Z,37.54
2023-03-19T19:49:14.473Z,37.91
2023-03-19T19:51:41.277Z,37.59
2023-03-19T19:54:07.907Z,38.15
2023-03-19T19:56:34.478Z,37.97
2023-03-19T19:59:08.454Z,37.88
2023-03-19T20:01:35.555Z,37.99
2023-03-19T20:04:04.248Z,38.27
2023-03-19T20:06:30.975Z,38.89
2023-03-19T20:08:57.452Z,38.48
2023-03-19T20:11:26.539Z,38.30
2023-03-19T20:13:55.604Z,37.84
2023-03-19T20:16:25.523Z,37.92
2023-03-19T20:18:53.886Z,37.92
2023-03-19T20:21:21.743Z,37.60
2023-03-19T20:23:51.159Z,37.53
2023-03-19T20:26:21.088Z,37.73
2023-03-19T20:28:48.257Z,37.56
2023-03-19T20:31:24.766Z,37.74
2023-03-19T20:33:51.543Z,37.84
2023-03-19T20:36:19.588Z,37.63
2023-03-19T20:38:46.218Z,37.36
2023-03-19T20:41:25.931Z,37.94
2023-03-19T20:43:53.687Z,38.82
2023-03-19T20:46:21.840Z,38.49
2023-03-19T20:48:49.034Z,38.47
2023-03-19T20:51:21.664Z,38.11
2023-03-19T20:53:49.935Z,37.84
2023-03-19T20:56:22.602Z,38.03
2023-03-19T20:58:49.509Z,37.74
2023-03-19T21:01:17.879Z,38.12
2023-03-19T21:03:44.595Z,38.24
2023-03-19T21:06:23.025Z,38.66
2023-03-19T21:08:58.785Z,39.83
2023-03-19T21:11:39.346Z,38.97
2023-03-19T21:14:06.758Z,38.54
2023-03-19T21:16:34.032Z,38.67
2023-03-19T21:19:00.851Z,38.47
2023-03-19T21:21:34.418Z,38.85
2023-03-19T21:24:12.414Z,39.10
2023-03-19T21:26:40.362Z,39.77
2023-03-19T21:29:14.277Z,40.14
2023-03-19T21:31:40.819Z,39.95
2023-03-19T21:34:07.351Z,40.07
2023-03-19T21:36:33.831Z,40.10
2023-03-19T21:39:01.370Z,40.55
2023-03-19T21:41:33.409Z,41.30
2023-03-19T21:44:03.885Z,41.82
2023-03-19T21:46:32.327Z,42.62
2023-03-19T21:48:58.999Z,42.13
2023-03-19T21:51:29.619Z,42.91
2023-03-19T21:53:56.505Z,42.82
2023-03-19T21:56:32.719Z,42.90
2023-03-19T21:59:09.717Z,43.15
2023-03-19T22:01:36.268Z,43.23
2023-03-19T22:04:03.015Z,43.59
2023-03-19T22:06:30.069Z,43.45
2023-03-19T22:08:56.746Z,43.60
2023-03-19T22:11:28.396Z,43.99
2023-03-19T22:14:04.177Z,43.81
2023-03-19T22:16:31.745Z,44.04
2023-03-19T22:18:58.342Z,44.08
2023-03-19T22:21:25.075Z,44.43
2023-03-19T22:23:52.019Z,44.82
2023-03-19T22:26:29.590Z,44.72
2023-03-19T22:28:58.613Z,45.23
2023-03-19T22:31:25.626Z,44.88
2023-03-19T22:33:52.753Z,44.81
2023-03-19T22:36:19.505Z,44.98
2023-03-19T22:38:47.081Z,45.09
2023-03-19T22:41:37.029Z,45.19
2023-03-19T22:44:07.969Z,45.54
2023-03-19T22:46:35.415Z,45.26
2023-03-19T22:49:02.577Z,45.35
2023-03-19T22:51:29.168Z,44.86
2023-03-19T22:53:55.887Z,45.82
2023-03-19T22:56:22.499Z,45.62
2023-03-19T22:58:49.996Z,45.73
2023-03-19T23:01:41.693Z,45.84
2023-03-19T23:04:31.883Z,46.48
2023-03-19T23:07:00.494Z,46.75
2023-03-19T23:09:32.567Z,46.47
2023-03-19T23:12:00.200Z,46.74
2023-03-19T23:14:30.927Z,46.82
2023-03-19T23:17:01.589Z,46.88
2023-03-19T23:19:31.499Z,47.54
2023-03-19T23:21:58.900Z,47.73
2023-03-19T23:24:26.135Z,47.60
2023-03-19T23:26:54.820Z,48.18
2023-03-19T23:29:24.551Z,48.53
2023-03-19T23:31:51.408Z,48.50
2023-03-19T23:34:18.143Z,48.70
2023-03-19T23:36:45.167Z,48.44
2023-03-19T23:39:11.729Z,48.43
2023-03-19T23:41:48.309Z,48.38
2023-03-19T23:44:17.720Z,48.54
2023-03-19T23:46:48.671Z,49.18
2023-03-19T23:49:28.812Z,49.03
2023-03-19T23:51:56.656Z,49.19
2023-03-19T23:54:33.898Z,49.33
2023-03-19T23:57:04.309Z,49.48
2023-03-19T23:59:35.781Z,49.45
